Time;durP1;ratioP1;P1;durP2;ratioP2;P2;SDS_P1;SDS_P2;PMS_P1;PMS_P2;Temp;Humidity;BMP_temperature;BMP_pressure;BME280_temperature;BME280_humidity;BME280_pressure;Samples;Min_cycle;Max_cycle;Signal;HPM_P1;HPM_P2
2022/06/13 00:00:19;;;;;;;6.80;2.20;;;14.70;99.90;;;;;;5037648;28;20391;-45
2022/06/13 00:02:45;;;;;;;7.22;2.17;;;14.70;99.90;;;;;;5036519;28;20087;-46
2022/06/13 00:05:12;;;;;;;7.95;2.00;;;14.70;99.90;;;;;;5039991;28;20052;-46
2022/06/13 00:07:38;;;;;;;9.90;2.20;;;14.60;99.90;;;;;;5033936;28;20042;-46
2022/06/13 00:10:05;;;;;;;7.53;2.10;;;14.60;99.90;;;;;;5036257;28;20087;-47
2022/06/13 00:12:31;;;;;;;9.45;2.60;;;14.60;99.90;;;;;;5040231;28;20148;-46
2022/06/13 00:14:57;;;;;;;8.70;1.92;;;14.60;99.90;;;;;;5037282;28;20156;-46
2022/06/13 00:17:22;;;;;;;5.72;1.80;;;14.50;99.90;;;;;;5039648;28;20122;-46
2022/06/13 00:19:48;;;;;;;7.07;2.17;;;14.50;99.90;;;;;;5023327;28;20088;-47
2022/06/13 00:22:14;;;;;;;8.02;2.35;;;14.50;99.90;;;;;;5029654;28;20074;-45
2022/06/13 00:24:40;;;;;;;8.07;2.20;;;14.50;99.90;;;;;;5022562;28;20388;-46
2022/06/13 00:27:05;;;;;;;6.88;2.30;;;14.50;99.90;;;;;;5041211;28;20037;-45
2022/06/13 00:29:31;;;;;;;8.25;2.53;;;14.40;99.90;;;;;;5036804;28;20045;-46
2022/06/13 00:31:57;;;;;;;7.10;2.05;;;14.40;99.90;;;;;;5040669;28;20036;-46
2022/06/13 00:34:23;;;;;;;6.35;2.30;;;14.40;99.90;;;;;;5042218;28;20460;-45
2022/06/13 00:36:48;;;;;;;7.88;2.50;;;14.40;99.90;;;;;;5038583;28;20047;-46
2022/06/13 00:39:15;;;;;;;8.82;2.58;;;14.40;99.90;;;;;;5040812;28;20152;-46
2022/06/13 00:41:43;;;;;;;8.00;2.15;;;14.30;99.90;;;;;;5035943;28;20048;-50
2022/06/13 00:44:26;;;;;;;6.70;2.10;;;14.30;99.90;;;;;;5040405;28;20040;-46
2022/06/13 00:46:52;;;;;;;9.50;2.30;;;14.30;99.90;;;;;;5035416;28;20041;-47
2022/06/13 00:49:40;;;;;;;7.70;2.17;;;14.20;99.90;;;;;;5037636;28;20098;-46
2022/06/13 00:52:09;;;;;;;8.95;2.55;;;14.30;99.90;;;;;;5036964;28;20041;-50
2022/06/13 00:54:37;;;;;;;8.13;2.70;;;14.20;99.90;;;;;;5034938;28;20052;-46
2022/06/13 00:57:04;;;;;;;8.23;2.20;;;14.20;99.90;;;;;;5037683;28;20052;-46
2022/06/13 00:59:33;;;;;;;6.38;2.30;;;14.20;99.90;;;;;;5036852;28;20395;-45
2022/06/13 01:01:59;;;;;;;6.22;2.28;;;14.20;99.90;;;;;;5031439;28;20048;-50
2022/06/13 01:04:25;;;;;;;6.80;2.00;;;14.20;99.90;;;;;;5039038;28;20046;-47
2022/06/13 01:06:51;;;;;;;11.13;3.38;;;14.20;99.90;;;;;;5039166;28;20047;-46
2022/06/13 01:11:16;;;;;;;9.35;2.83;;;14.20;99.90;;;;;;5036742;28;20126;-46
2022/06/13 01:12:06;;;;;;;9.75;2.45;;;14.10;99.90;;;;;;5040255;28;20040;-47
2022/06/13 01:14:31;;;;;;;9.85;2.63;;;14.10;99.90;;;;;;5036771;28;20041;-46
2022/06/13 01:17:12;;;;;;;9.48;2.47;;;14.10;99.90;;;;;;5039782;28;20392;-47
2022/06/13 01:20:03;;;;;;;9.45;2.45;;;14.10;99.90;;;;;;5035108;28;20076;-45
2022/06/13 01:22:49;;;;;;;10.55;2.83;;;14.10;99.90;;;;;;5035548;28;20037;-46
2022/06/13 01:25:21;;;;;;;8.38;2.60;;;14.10;99.90;;;;;;5032760;28;20720;-47
2022/06/13 01:27:52;;;;;;;7.97;2.25;;;14.10;99.90;;;;;;5037829;28;20403;-46
2022/06/13 01:30:35;;;;;;;9.75;2.33;;;14.10;99.90;;;;;;5035931;28;20124;-46
2022/06/13 01:33:39;;;;;;;9.75;2.28;;;14.10;99.90;;;;;;5038464;28;20051;-46
2022/06/13 01:36:27;;;;;;;7.30;2.15;;;14.10;99.90;;;;;;5019091;28;20049;-45
2022/06/13 01:39:06;;;;;;;6.47;2.15;;;14.10;99.90;;;;;;5036697;28;20070;-47
2022/06/13 01:41:43;;;;;;;9.05;2.42;;;14.10;99.90;;;;;;5037041;28;20045;-46
2022/06/13 01:44:22;;;;;;;7.13;2.50;;;14.10;99.90;;;;;;5040027;28;20041;-47
2022/06/13 01:46:55;;;;;;;6.85;2.45;;;14.10;99.90;;;;;;5039070;28;20109;-46
2022/06/13 01:49:47;;;;;;;10.95;2.95;;;14.10;99.90;;;;;;5035386;28;20045;-49
2022/06/13 01:52:33;;;;;;;9.43;2.78;;;14.10;99.90;;;;;;5009015;28;20115;-46
2022/06/13 01:55:19;;;;;;;9.65;2.45;;;14.10;99.90;;;;;;5048872;28;20041;-47
2022/06/13 01:58:14;;;;;;;7.63;2.40;;;14.10;99.90;;;;;;5034281;28;20056;-47
2022/06/13 02:00:46;;;;;;;10.35;3.22;;;14.10;99.90;;;;;;5026515;28;20159;-46
2022/06/13 02:03:39;;;;;;;7.45;2.50;;;14.10;99.90;;;;;;5033246;28;20527;-48
2022/06/13 02:06:11;;;;;;;10.25;2.55;;;14.10;99.90;;;;;;5036021;28;20032;-52
2022/06/13 02:08:44;;;;;;;9.83;2.90;;;14.10;99.90;;;;;;5032438;28;20086;-46
2022/06/13 02:11:19;;;;;;;10.02;2.70;;;14.10;99.90;;;;;;5036369;28;20311;-48
2022/06/13 02:13:54;;;;;;;11.50;3.38;;;14.10;99.90;;;;;;5039410;28;20049;-47
2022/06/13 02:16:30;;;;;;;8.77;2.60;;;14.10;99.90;;;;;;5034880;28;20442;-50
2022/06/13 02:19:04;;;;;;;9.77;2.67;;;14.10;99.90;;;;;;5032336;28;20044;-46
2022/06/13 02:21:58;;;;;;;9.32;2.40;;;14.10;99.90;;;;;;5039175;28;20051;-50
2022/06/13 02:24:26;;;;;;;;;;;14.10;99.90;;;;;;5033880;28;20032;-49
2022/06/13 02:26:57;;;;;;;9.45;2.58;;;14.10;99.90;;;;;;5034606;28;20379;-47
2022/06/13 02:29:41;;;;;;;7.22;2.70;;;14.10;99.90;;;;;;5036575;28;20041;-47
2022/06/13 02:32:36;;;;;;;9.50;3.20;;;14.10;99.90;;;;;;5017121;28;20322;-47
2022/06/13 02:35:06;;;;;;;8.70;3.10;;;14.10;99.90;;;;;;5028407;28;20052;-48
2022/06/13 02:37:51;;;;;;;8.52;2.58;;;14.10;99.90;;;;;;5029514;28;20041;-47
2022/06/13 02:40:44;;;;;;;9.18;2.40;;;14.10;99.90;;;;;;5037610;28;20102;-47
2022/06/13 02:43:12;;;;;;;8.85;2.67;;;14.10;99.90;;;;;;5042178;28;20133;-47
2022/06/13 02:45:41;;;;;;;8.27;2.75;;;14.10;99.90;;;;;;5033710;28;20041;-46
2022/06/13 02:48:16;;;;;;;6.65;2.78;;;14.10;99.90;;;;;;5032855;28;20029;-48
2022/06/13 02:50:59;;;;;;;8.07;2.30;;;14.10;99.90;;;;;;5030665;28;20357;-47
2022/06/13 02:53:35;;;;;;;11.90;3.25;;;14.10;99.90;;;;;;5033631;28;20029;-49
2022/06/13 02:56:12;;;;;;;9.73;2.75;;;14.10;99.90;;;;;;5034437;28;20455;-47
2022/06/13 02:59:03;;;;;;;8.85;2.80;;;14.10;99.90;;;;;;5025664;28;20119;-49
2022/06/13 03:01:39;;;;;;;8.13;2.38;;;14.10;99.90;;;;;;5036044;28;20037;-49
2022/06/13 03:04:35;;;;;;;7.85;2.17;;;14.10;99.90;;;;;;5037159;28;20511;-48
2022/06/13 03:07:10;;;;;;;9.85;3.40;;;14.10;99.90;;;;;;5036125;28;20041;-47
2022/06/13 03:10:05;;;;;;;9.45;2.65;;;14.10;99.90;;;;;;5035251;28;20041;-48
2022/06/13 03:12:55;;;;;;;8.98;3.03;;;14.10;99.90;;;;;;5040034;28;20060;-47
2022/06/13 03:15:34;;;;;;;8.63;2.55;;;14.10;99.90;;;;;;5013474;28;20049;-46
2022/06/13 03:18:09;;;;;;;7.68;2.75;;;14.10;99.90;;;;;;5039426;28;20041;-47
2022/06/13 03:20:44;;;;;;;9.10;2.80;;;14.10;99.90;;;;;;5042843;28;20157;-47
2022/06/13 03:23:30;;;;;;;6.72;2.30;;;14.10;99.90;;;;;;5029698;28;20037;-47
2022/06/13 03:26:07;;;;;;;7.82;2.03;;;14.10;99.90;;;;;;5020035;28;20079;-49
2022/06/13 03:28:42;;;;;;;7.90;2.70;;;14.10;99.90;;;;;;5039495;28;20364;-47
2022/06/13 03:31:30;;;;;;;11.52;3.05;;;14.20;99.90;;;;;;5035783;28;20119;-48
2022/06/13 03:34:01;;;;;;;11.80;2.65;;;14.20;99.90;;;;;;5021740;28;20376;-48
2022/06/13 03:36:40;;;;;;;8.77;2.50;;;14.10;99.90;;;;;;5041735;28;20047;-49
2022/06/13 03:39:15;;;;;;;7.93;2.60;;;14.20;99.90;;;;;;5039309;28;20168;-50
2022/06/13 03:42:01;;;;;;;8.90;2.30;;;14.10;99.90;;;;;;5040133;28;20051;-49
2022/06/13 03:44:39;;;;;;;7.93;2.42;;;14.20;99.90;;;;;;5024178;28;20041;-48
2022/06/13 03:47:14;;;;;;;9.55;2.75;;;14.20;99.90;;;;;;5037434;28;20041;-50
2022/06/13 03:49:59;;;;;;;8.43;2.30;;;14.20;99.90;;;;;;5036231;28;20356;-47
2022/06/13 03:52:28;;;;;;;7.22;2.33;;;14.20;99.90;;;;;;5036653;28;20045;-48
2022/06/13 03:55:14;;;;;;;7.43;1.98;;;14.20;99.90;;;;;;5037785;28;20052;-49
2022/06/13 03:58:08;;;;;;;7.68;2.97;;;14.20;99.90;;;;;;5039981;28;20041;-48
2022/06/13 04:00:41;;;;;;;8.38;2.70;;;14.20;99.90;;;;;;5038934;28;20044;-47
2022/06/13 04:03:07;;;;;;;;;;;14.20;99.90;;;;;;5041126;28;20033;-48
2022/06/13 04:05:58;;;;;;;8.43;2.63;;;14.20;99.90;;;;;;5037889;28;20458;-47
2022/06/13 04:08:26;;;;;;;7.25;2.53;;;14.20;99.90;;;;;;5039144;28;20064;-50
2022/06/13 04:11:16;;;;;;;10.35;2.72;;;14.20;99.90;;;;;;5038205;28;20072;-49
2022/06/13 04:13:59;;;;;;;9.18;2.28;;;14.20;99.90;;;;;;5037046;28;20045;-50
2022/06/13 04:16:38;;;;;;;10.68;2.13;;;14.30;99.90;;;;;;5038212;28;20047;-50
2022/06/13 04:19:33;;;;;;;7.88;1.85;;;14.30;99.90;;;;;;5037915;28;20369;-48
2022/06/13 04:22:07;;;;;;;9.55;2.10;;;14.30;99.90;;;;;;5036884;28;20053;-49
2022/06/13 04:24:44;;;;;;;6.60;2.20;;;14.30;99.90;;;;;;5035790;28;20043;-50
2022/06/13 04:27:15;;;;;;;8.25;2.10;;;14.30;99.90;;;;;;5034494;28;20476;-48
2022/06/13 04:29:55;;;;;;;9.27;2.00;;;14.30;99.90;;;;;;5036382;28;20071;-48
2022/06/13 04:32:28;;;;;;;6.80;1.70;;;14.30;99.90;;;;;;5044413;28;20055;-47
2022/06/13 04:34:57;;;;;;;8.25;2.08;;;14.30;99.90;;;;;;5036796;28;20041;-46
2022/06/13 04:37:24;;;;;;;8.45;1.92;;;14.30;99.90;;;;;;5034853;28;20171;-47
2022/06/13 04:39:53;;;;;;;10.23;2.15;;;14.30;99.90;;;;;;5036411;28;20048;-47
2022/06/13 04:42:21;;;;;;;10.25;2.22;;;14.40;99.90;;;;;;5039927;28;20045;-46
2022/06/13 04:44:48;;;;;;;8.35;1.80;;;14.40;99.90;;;;;;5016416;28;20048;-47
2022/06/13 04:47:16;;;;;;;5.60;1.70;;;14.30;99.90;;;;;;5036416;28;20044;-47
2022/06/13 04:49:50;;;;;;;8.48;2.10;;;14.40;99.90;;;;;;5037240;28;20414;-47
2022/06/13 04:52:26;;;;;;;6.90;1.70;;;14.40;99.90;;;;;;5035067;28;20036;-47
2022/06/13 04:55:04;;;;;;;7.13;1.83;;;14.40;99.90;;;;;;5042580;28;20138;-48
2022/06/13 04:57:31;;;;;;;8.82;1.95;;;14.40;99.90;;;;;;5033775;28;20191;-47
2022/06/13 04:59:57;;;;;;;6.78;2.05;;;14.50;99.90;;;;;;5036430;28;20165;-46
2022/06/13 05:02:33;;;;;;;5.13;1.42;;;14.50;99.90;;;;;;5041187;28;20522;-46
2022/06/13 05:04:59;;;;;;;11.40;1.80;;;14.50;99.90;;;;;;5039693;28;20037;-46
2022/06/13 05:07:25;;;;;;;5.88;1.88;;;14.50;99.90;;;;;;5043740;28;20164;-46
2022/06/13 05:09:57;;;;;;;8.40;1.83;;;14.50;99.90;;;;;;5037172;28;20208;-47
2022/06/13 05:12:32;;;;;;;6.25;1.48;;;14.60;99.90;;;;;;5037188;28;20025;-47
2022/06/13 05:15:11;;;;;;;7.82;1.55;;;14.60;99.90;;;;;;5044047;28;20065;-48
2022/06/13 05:18:16;;;;;;;9.95;1.77;;;14.60;99.90;;;;;;5033364;28;20496;-49
2022/06/13 05:21:17;;;;;;;8.23;2.15;;;14.60;99.90;;;;;;5027001;28;20519;-48
2022/06/13 05:23:57;;;;;;;6.60;1.67;;;14.60;99.90;;;;;;5005149;28;20095;-47
2022/06/13 05:26:28;;;;;;;7.07;1.58;;;14.60;99.90;;;;;;5034687;28;20099;-48
2022/06/13 05:28:57;;;;;;;5.25;1.42;;;14.60;99.90;;;;;;5041307;28;20053;-47
2022/06/13 05:31:23;;;;;;;5.38;0.73;;;14.50;99.90;;;;;;5034787;28;20131;-49
2022/06/13 05:33:50;;;;;;;5.53;1.00;;;14.50;99.90;;;;;;5035675;28;20052;-49
2022/06/13 05:36:22;;;;;;;4.85;0.70;;;14.50;99.90;;;;;;5033332;28;20107;-50
2022/06/13 05:38:52;;;;;;;2.85;0.57;;;14.60;99.90;;;;;;5041087;28;20498;-48
2022/06/13 05:41:18;;;;;;;2.78;0.60;;;14.60;99.90;;;;;;5037248;28;20571;-49
2022/06/13 05:43:44;;;;;;;2.97;0.60;;;14.60;99.90;;;;;;5031492;28;20054;-49
2022/06/13 05:46:26;;;;;;;3.92;0.70;;;14.60;99.90;;;;;;5031184;28;20051;-47
2022/06/13 05:48:52;;;;;;;2.40;0.40;;;14.70;99.90;;;;;;5045243;28;20041;-47
2022/06/13 05:51:18;;;;;;;2.47;0.70;;;14.70;99.90;;;;;;5030326;28;20487;-50
2022/06/13 05:53:44;;;;;;;3.13;0.40;;;14.70;99.90;;;;;;5034419;28;20045;-50
2022/06/13 05:56:11;;;;;;;2.67;0.30;;;14.70;99.90;;;;;;5030774;28;20045;-49
2022/06/13 05:58:37;;;;;;;2.20;0.30;;;14.80;99.90;;;;;;5036367;28;20095;-48
2022/06/13 06:01:05;;;;;;;4.15;0.73;;;14.80;99.90;;;;;;5035118;28;20040;-48
2022/06/13 06:03:32;;;;;;;2.88;0.50;;;14.80;99.90;;;;;;5033908;28;20046;-51
2022/06/13 06:05:59;;;;;;;4.72;0.30;;;14.90;99.90;;;;;;5042539;28;20039;-49
2022/06/13 06:08:28;;;;;;;3.22;0.40;;;15.00;99.90;;;;;;5030347;28;20305;-49
2022/06/13 06:10:56;;;;;;;2.60;0.30;;;15.00;99.90;;;;;;5028767;28;20077;-47
2022/06/13 06:13:22;;;;;;;3.97;0.40;;;15.10;99.90;;;;;;5030298;28;20068;-47
2022/06/13 06:15:49;;;;;;;8.93;0.98;;;15.20;99.90;;;;;;5036505;28;20608;-49
2022/06/13 06:18:16;;;;;;;8.65;0.80;;;15.20;99.90;;;;;;5032258;28;20041;-46
2022/06/13 06:20:42;;;;;;;10.27;0.60;;;15.30;99.90;;;;;;5031364;28;20487;-48
2022/06/13 06:23:09;;;;;;;5.18;0.40;;;15.30;99.90;;;;;;5030412;28;20040;-50
2022/06/13 06:25:35;;;;;;;7.60;0.60;;;15.40;99.90;;;;;;5030438;28;20381;-48
2022/06/13 06:28:02;;;;;;;6.38;0.82;;;15.50;99.90;;;;;;5034695;28;20028;-50
2022/06/13 06:30:28;;;;;;;10.38;0.47;;;15.60;99.90;;;;;;5043103;28;20033;-48
2022/06/13 06:32:55;;;;;;;3.58;0.50;;;15.70;99.90;;;;;;5031356;28;20597;-46
2022/06/13 06:35:22;;;;;;;8.60;0.75;;;15.90;99.90;;;;;;5044758;28;20029;-46
2022/06/13 06:37:49;;;;;;;5.38;0.50;;;16.00;99.90;;;;;;5036098;28;20459;-47
2022/06/13 06:40:18;;;;;;;6.63;0.60;;;16.00;99.90;;;;;;5033181;28;20588;-47
2022/06/13 06:42:44;;;;;;;9.80;0.70;;;16.10;99.90;;;;;;5036162;28;20054;-47
2022/06/13 06:45:11;;;;;;;4.63;0.40;;;16.10;99.90;;;;;;5029355;28;20051;-47
2022/06/13 06:47:39;;;;;;;6.22;0.52;;;16.20;99.90;;;;;;5038139;28;20048;-48
2022/06/13 06:50:06;;;;;;;7.57;0.50;;;16.20;99.90;;;;;;5038894;28;20041;-48
2022/06/13 06:52:31;;;;;;;3.75;0.40;;;16.30;99.90;;;;;;5035452;28;20045;-47
2022/06/13 07:00:26;;;;;;;5.32;0.40;;;16.30;99.90;;;;;;5036831;28;20533;-49
2022/06/13 07:02:51;;;;;;;4.10;0.40;;;16.30;99.90;;;;;;5040882;28;20116;-47
2022/06/13 07:05:18;;;;;;;4.68;0.30;;;16.30;99.90;;;;;;5041577;28;20515;-48
2022/06/13 07:07:43;;;;;;;5.43;0.40;;;16.20;99.90;;;;;;5039576;28;20449;-50
2022/06/13 07:10:11;;;;;;;4.70;0.30;;;16.20;99.90;;;;;;5042529;28;20098;-48
2022/06/13 07:12:37;;;;;;;3.22;0.30;;;16.20;99.90;;;;;;5037204;28;20487;-50
2022/06/13 07:15:03;;;;;;;4.13;0.40;;;16.20;99.90;;;;;;5034317;28;20048;-49
2022/06/13 07:17:29;;;;;;;2.50;0.40;;;16.20;99.90;;;;;;5039461;28;20170;-48
2022/06/13 07:19:55;;;;;;;3.90;0.30;;;16.20;99.90;;;;;;5038519;28;20262;-47
2022/06/13 07:22:24;;;;;;;3.70;0.32;;;16.30;99.90;;;;;;5035187;28;20045;-48
2022/06/13 07:24:51;;;;;;;3.55;0.30;;;16.40;99.90;;;;;;5027498;28;20361;-51
2022/06/13 07:27:17;;;;;;;3.15;0.30;;;16.50;99.90;;;;;;5027478;28;20179;-47
2022/06/13 07:29:43;;;;;;;2.65;0.43;;;16.60;99.90;;;;;;5039632;28;20048;-48
2022/06/13 07:32:22;;;;;;;4.53;0.40;;;16.70;99.90;;;;;;5041427;28;20049;-47
2022/06/13 07:34:51;;;;;;;5.10;0.40;;;16.80;99.90;;;;;;5046824;28;20803;-49
2022/06/13 07:40:06;;;;;;;3.85;0.55;;;16.90;99.90;;;;;;5040781;28;20558;-48
2022/06/13 07:42:37;;;;;;;7.40;0.70;;;16.90;99.90;;;;;;5036806;28;20044;-48
2022/06/13 07:45:04;;;;;;;3.47;0.40;;;16.90;99.90;;;;;;5035378;28;20455;-47
2022/06/13 07:47:30;;;;;;;6.82;0.50;;;17.00;99.90;;;;;;5042700;28;20487;-48
2022/06/13 07:49:56;;;;;;;6.28;0.40;;;17.00;99.90;;;;;;5036484;28;20407;-48
2022/06/13 07:52:21;;;;;;;4.28;0.38;;;17.00;99.90;;;;;;5029579;28;20061;-47
2022/06/13 07:54:47;;;;;;;4.05;0.30;;;17.00;99.90;;;;;;5038689;28;20087;-48
2022/06/13 07:57:13;;;;;;;3.63;0.30;;;16.90;99.90;;;;;;5042281;28;20049;-47
2022/06/13 07:59:40;;;;;;;5.10;0.50;;;16.90;99.90;;;;;;5042193;28;20040;-48
2022/06/13 08:02:16;;;;;;;2.40;0.30;;;17.00;99.90;;;;;;5037654;28;20455;-49
2022/06/13 08:04:42;;;;;;;3.75;0.30;;;17.00;99.90;;;;;;5035365;28;20041;-48
2022/06/13 08:07:13;;;;;;;4.53;0.30;;;17.10;99.90;;;;;;5026783;28;20071;-48
2022/06/13 08:09:39;;;;;;;2.40;0.15;;;17.20;99.90;;;;;;5041286;28;20045;-47
2022/06/13 08:12:06;;;;;;;5.10;0.50;;;17.20;99.90;;;;;;5036437;28;20045;-49
2022/06/13 08:14:33;;;;;;;5.25;0.35;;;17.30;99.90;;;;;;5036091;28;20044;-50
2022/06/13 08:16:59;;;;;;;3.63;0.38;;;17.30;99.90;;;;;;5038035;28;20128;-48
2022/06/13 08:19:25;;;;;;;5.50;0.40;;;17.30;99.90;;;;;;5046333;28;20179;-46
2022/06/13 08:21:51;;;;;;;6.30;0.40;;;17.40;99.90;;;;;;5047267;28;20044;-50
2022/06/13 08:24:17;;;;;;;6.05;0.50;;;17.40;99.90;;;;;;5039221;28;20385;-51
2022/06/13 08:26:43;;;;;;;4.45;0.52;;;17.50;99.90;;;;;;5032128;28;20037;-51
2022/06/13 08:29:10;;;;;;;7.50;0.50;;;17.60;99.90;;;;;;5042392;28;20038;-51
2022/06/13 08:31:36;;;;;;;7.70;0.82;;;17.60;99.90;;;;;;5041836;28;20033;-51
2022/06/13 08:34:04;;;;;;;5.55;0.40;;;17.70;99.90;;;;;;5041752;28;20041;-48
2022/06/13 08:36:30;;;;;;;7.03;0.57;;;17.70;99.90;;;;;;5029879;28;20040;-49
2022/06/13 08:38:56;;;;;;;4.05;0.50;;;17.70;99.90;;;;;;5056828;28;20045;-47
2022/06/13 08:41:36;;;;;;;3.75;0.40;;;17.80;99.90;;;;;;5036397;28;20415;-48
2022/06/13 08:44:39;;;;;;;24.02;2.20;;;17.80;99.90;;;;;;5043015;28;20048;-49
2022/06/13 08:47:23;;;;;;;15.03;1.43;;;17.90;99.90;;;;;;5027553;28;20590;-47
2022/06/13 08:50:01;;;;;;;16.33;1.45;;;17.90;99.90;;;;;;5043647;28;20049;-49
2022/06/13 08:52:29;;;;;;;10.00;0.68;;;17.90;99.90;;;;;;5044993;28;20513;-47
2022/06/13 08:55:12;;;;;;;8.50;0.85;;;17.90;99.90;;;;;;5035389;28;20060;-50
2022/06/13 08:57:45;;;;;;;6.90;0.52;;;18.00;99.90;;;;;;5037214;28;20045;-47
2022/06/13 09:00:17;;;;;;;5.90;0.40;;;18.10;99.90;;;;;;5040677;28;20044;-49
2022/06/13 09:03:06;;;;;;;6.82;0.40;;;18.10;99.90;;;;;;5042461;28;20047;-47
2022/06/13 09:05:53;;;;;;;5.85;0.73;;;18.10;99.90;;;;;;5045278;28;20032;-46
2022/06/13 09:08:27;;;;;;;6.15;0.50;;;18.10;99.90;;;;;;5039741;28;20069;-50
2022/06/13 09:11:21;;;;;;;8.02;0.43;;;18.10;99.90;;;;;;5029824;28;20037;-46
2022/06/13 09:13:58;;;;;;;14.38;1.00;;;18.10;99.90;;;;;;5045401;28;20041;-46
2022/06/13 09:16:32;;;;;;;7.95;0.73;;;18.10;99.90;;;;;;5053320;28;20034;-48
2022/06/13 09:19:16;;;;;;;10.80;0.65;;;18.20;99.90;;;;;;5035485;28;20036;-49
2022/06/13 09:21:51;;;;;;;3.97;0.40;;;18.10;99.90;;;;;;5028931;28;20038;-47
2022/06/13 09:24:55;;;;;;;6.72;0.50;;;18.10;99.90;;;;;;5043841;28;20084;-50
2022/06/13 09:27:26;;;;;;;5.03;0.30;;;18.20;99.90;;;;;;5009246;28;20515;-49
2022/06/13 09:30:04;;;;;;;9.52;0.50;;;18.20;99.90;;;;;;5030654;28;20466;-47
2022/06/13 09:32:54;;;;;;;8.57;0.60;;;18.20;99.90;;;;;;5037126;28;20451;-50
2022/06/13 09:35:24;;;;;;;7.22;0.45;;;18.20;99.90;;;;;;5028976;28;20057;-47
2022/06/13 09:37:57;;;;;;;7.85;0.70;;;18.30;99.90;;;;;;5028850;28;20063;-50
2022/06/13 09:40:46;;;;;;;11.48;0.85;;;18.30;99.90;;;;;;5037327;28;20053;-48
2022/06/13 09:43:23;;;;;;;7.10;0.40;;;18.50;99.90;;;;;;5032046;28;20029;-47
2022/06/13 09:45:55;;;;;;;7.32;0.40;;;18.40;99.90;;;;;;5033115;28;20033;-46
2022/06/13 09:48:24;;;;;;;3.97;0.40;;;18.50;99.90;;;;;;5035257;28;20045;-49
2022/06/13 09:51:05;;;;;;;4.32;0.40;;;18.50;99.90;;;;;;5035245;28;20136;-47
2022/06/13 09:53:35;;;;;;;6.72;0.55;;;18.70;99.90;;;;;;5038184;28;20049;-46
2022/06/13 09:56:13;;;;;;;5.60;0.60;;;18.80;99.90;;;;;;5027932;28;20041;-47
2022/06/13 09:58:45;;;;;;;12.77;1.25;;;18.90;99.90;;;;;;5037065;28;20045;-47
2022/06/13 10:01:29;;;;;;;9.10;0.93;;;18.90;99.90;;;;;;5033110;28;20140;-46
2022/06/13 10:04:00;;;;;;;10.20;0.98;;;18.90;99.90;;;;;;5034049;28;20042;-46
2022/06/13 10:06:42;;;;;;;8.10;1.10;;;19.00;99.90;;;;;;5034499;28;20041;-46
2022/06/13 10:09:46;;;;;;;12.02;0.93;;;19.00;99.90;;;;;;5057070;28;20056;-48
2022/06/13 10:12:17;;;;;;;8.27;0.68;;;19.00;99.90;;;;;;5035694;28;20038;-46
2022/06/13 10:15:19;;;;;;;6.40;0.60;;;19.10;99.90;;;;;;5039186;28;20044;-46
2022/06/13 10:17:57;;;;;;;7.80;0.73;;;19.20;99.90;;;;;;5031606;28;20114;-45
2022/06/13 10:20:47;;;;;;;9.30;0.70;;;19.20;99.90;;;;;;5038659;28;20048;-48
2022/06/13 10:23:41;;;;;;;8.82;0.80;;;19.20;99.90;;;;;;5036019;28;20491;-47
2022/06/13 10:26:15;;;;;;;8.00;0.93;;;19.20;99.90;;;;;;5039172;28;20558;-46
2022/06/13 10:28:47;;;;;;;7.10;0.88;;;19.20;99.90;;;;;;5033342;28;20041;-46
2022/06/13 10:31:40;;;;;;;9.40;0.75;;;19.20;99.90;;;;;;5035276;28;20041;-48
2022/06/13 10:34:06;;;;;;;;;;;19.20;99.90;;;;;;5031132;28;20045;-46
2022/06/13 10:36:48;;;;;;;8.45;0.60;;;19.20;99.90;;;;;;5034918;28;19917;-49
2022/06/13 10:39:17;;;;;;;8.67;0.93;;;19.30;99.90;;;;;;5031101;28;20128;-48
2022/06/13 10:41:49;;;;;;;10.02;1.05;;;19.30;99.90;;;;;;5033160;28;20051;-48
2022/06/13 10:44:18;;;;;;;5.35;0.63;;;19.30;99.90;;;;;;5032108;28;20734;-46
2022/06/13 10:46:49;;;;;;;7.57;0.80;;;19.40;99.90;;;;;;5039288;28;20487;-46
2022/06/13 10:49:27;;;;;;;8.60;0.90;;;19.40;99.90;;;;;;5039427;28;20479;-49
2022/06/13 10:51:57;;;;;;;5.88;0.50;;;19.50;99.90;;;;;;5038483;28;20438;-47
2022/06/13 10:54:32;;;;;;;6.40;0.73;;;19.60;99.90;;;;;;5045981;28;20686;-47
2022/06/13 10:57:09;;;;;;;7.25;0.60;;;19.60;99.90;;;;;;5041300;28;20726;-50
2022/06/13 10:59:37;;;;;;;9.65;1.00;;;19.60;99.90;;;;;;5041136;28;20703;-49
2022/06/13 11:02:05;;;;;;;9.73;0.93;;;19.70;99.90;;;;;;5024189;28;20510;-50
2022/06/13 11:04:34;;;;;;;11.10;1.10;;;19.80;99.90;;;;;;5030070;28;20446;-47
2022/06/13 11:07:13;;;;;;;13.25;1.23;;;19.80;99.90;;;;;;5045628;28;20068;-48
2022/06/13 11:09:47;;;;;;;10.32;1.10;;;19.90;99.90;;;;;;5046472;28;20120;-46
2022/06/13 11:12:23;;;;;;;10.80;1.08;;;19.90;99.90;;;;;;5037917;28;20400;-46
2022/06/13 11:23:19;;;;;;;10.18;1.08;;;20.00;99.90;;;;;;5030514;28;20042;-46
2022/06/13 11:25:58;;;;;;;8.68;1.27;;;20.10;99.90;;;;;;5027435;28;20099;-47
2022/06/13 11:28:28;;;;;;;7.90;0.70;;;20.10;99.90;;;;;;5042534;28;20604;-45
2022/06/13 11:31:12;;;;;;;8.85;0.90;;;20.00;99.90;;;;;;5041789;28;20049;-47
2022/06/13 11:33:40;;;;;;;10.57;1.10;;;20.10;99.90;;;;;;5045565;28;20032;-47
2022/06/13 11:36:12;;;;;;;9.35;0.90;;;20.20;99.90;;;;;;5049319;28;20045;-46
2022/06/13 11:38:59;;;;;;;9.18;1.00;;;20.20;99.90;;;;;;5045420;28;20048;-46
2022/06/13 11:41:35;;;;;;;7.65;0.82;;;20.30;99.90;;;;;;5044484;28;20056;-47
2022/06/13 11:44:10;;;;;;;9.20;0.82;;;20.30;99.90;;;;;;5036649;28;20462;-48
2022/06/13 11:46:51;;;;;;;6.57;0.60;;;20.30;99.90;;;;;;5047618;28;20533;-48
2022/06/13 11:49:18;;;;;;;9.18;0.90;;;20.30;99.90;;;;;;5038401;28;20687;-47
2022/06/13 11:52:10;;;;;;;6.10;0.60;;;20.30;99.90;;;;;;5032397;28;20041;-47
2022/06/13 11:54:55;;;;;;;8.15;0.60;;;20.30;99.90;;;;;;5038531;28;20033;-46
2022/06/13 11:57:34;;;;;;;6.65;0.70;;;20.30;99.90;;;;;;5035392;28;20046;-46
2022/06/13 12:00:15;;;;;;;10.50;0.52;;;20.30;99.90;;;;;;5038166;28;20037;-46
2022/06/13 12:02:50;;;;;;;6.68;0.50;;;20.30;99.90;;;;;;5041266;28;20040;-47
2022/06/13 12:05:28;;;;;;;7.20;0.60;;;20.40;99.90;;;;;;5031086;28;20045;-47
2022/06/13 12:08:03;;;;;;;5.88;0.40;;;20.40;99.90;;;;;;5031107;28;20041;-46
2022/06/13 12:10:38;;;;;;;5.15;0.40;;;20.50;99.90;;;;;;5027998;28;20099;-47
2022/06/13 12:13:15;;;;;;;5.65;0.65;;;20.50;99.90;;;;;;5033904;28;20051;-48
2022/06/13 12:15:48;;;;;;;5.18;0.30;;;20.50;99.90;;;;;;5030951;28;20053;-49
2022/06/13 12:18:44;;;;;;;7.43;0.40;;;20.60;99.90;;;;;;5036736;28;20037;-48
2022/06/13 12:21:18;;;;;;;4.97;0.40;;;20.60;99.90;;;;;;5045709;28;20675;-50
2022/06/13 12:23:51;;;;;;;5.82;0.70;;;20.70;99.90;;;;;;5048759;28;21654;-50
2022/06/13 12:26:30;;;;;;;6.43;0.50;;;20.70;99.90;;;;;;5047274;28;20045;-47
2022/06/13 12:29:20;;;;;;;2.97;0.40;;;20.80;99.90;;;;;;5045740;28;20037;-48
2022/06/13 12:32:12;;;;;;;4.95;0.40;;;20.80;99.90;;;;;;5048399;28;20049;-50
2022/06/13 12:35:10;;;;;;;3.85;0.30;;;20.90;99.90;;;;;;5034753;28;20053;-48
2022/06/13 12:38:10;;;;;;;5.55;0.47;;;21.00;99.90;;;;;;5047487;28;20375;-49
2022/06/13 12:41:00;;;;;;;4.60;0.47;;;21.10;99.90;;;;;;5028800;28;20539;-50
2022/06/13 12:43:48;;;;;;;5.05;0.60;;;21.10;99.90;;;;;;5039490;28;20045;-51
2022/06/13 12:46:45;;;;;;;10.40;0.80;;;21.20;99.90;;;;;;5031006;28;20036;-50
2022/06/13 12:49:39;;;;;;;4.85;0.40;;;21.20;99.90;;;;;;5040137;28;20113;-49
2022/06/13 12:52:22;;;;;;;5.90;0.82;;;21.20;99.90;;;;;;5047899;28;20622;-50
2022/06/13 12:55:09;;;;;;;9.70;0.65;;;21.30;99.90;;;;;;5045172;28;20060;-48
2022/06/13 12:57:38;;;;;;;6.80;0.50;;;21.30;99.90;;;;;;5046671;28;20574;-48
2022/06/13 13:00:20;;;;;;;5.72;0.38;;;21.20;99.90;;;;;;5034352;28;20042;-49
2022/06/13 13:03:10;;;;;;;6.47;0.70;;;21.30;99.90;;;;;;5038798;28;20038;-48
2022/06/13 13:06:01;;;;;;;9.60;0.65;;;21.20;99.90;;;;;;5026520;28;20407;-51
2022/06/13 13:08:57;;;;;;;9.07;0.60;;;21.20;99.90;;;;;;5045264;28;20399;-47
2022/06/13 13:12:01;;;;;;;6.18;0.50;;;21.20;99.90;;;;;;5039372;28;20121;-51
2022/06/13 13:14:39;;;;;;;5.38;0.52;;;21.20;99.90;;;;;;5040799;28;20041;-50
2022/06/13 13:17:23;;;;;;;6.85;0.60;;;21.20;99.40;;;;;;5045222;28;20123;-50
2022/06/13 13:20:15;;;;;;;4.80;0.50;;;21.20;99.70;;;;;;5039464;28;20049;-48
2022/06/13 13:23:03;;;;;;;5.88;0.60;;;21.30;99.70;;;;;;5040731;28;20365;-49
2022/06/13 13:25:44;;;;;;;5.63;0.40;;;21.30;99.90;;;;;;5032804;28;20447;-50
2022/06/13 13:28:38;;;;;;;5.00;0.43;;;21.30;98.90;;;;;;5038958;28;20041;-47
2022/06/13 13:31:24;;;;;;;5.60;0.40;;;21.30;98.00;;;;;;5040189;28;20106;-48
2022/06/13 13:34:11;;;;;;;7.05;0.55;;;21.30;97.80;;;;;;5030071;28;20125;-47
2022/06/13 13:37:07;;;;;;;5.30;0.40;;;21.30;97.60;;;;;;5042622;28;20041;-48
2022/06/13 13:39:37;;;;;;;4.53;0.55;;;21.30;96.30;;;;;;5047111;28;20045;-49
2022/06/13 13:42:20;;;;;;;6.32;0.43;;;21.30;96.70;;;;;;5046967;28;20069;-49
2022/06/13 13:44:54;;;;;;;4.75;0.55;;;21.40;96.30;;;;;;5037834;28;20565;-48